sensor_id;sensor_type;location;lat;lon;timestamp;P1;durP1;ratioP1;P2;durP2;ratioP2
16822;SDS011;8528;49.976;11.858;2022-09-03T00:00:08;2.60;;;2.40;;
16822;SDS011;8528;49.976;11.858;2022-09-03T00:02:44;2.50;;;2.30;;
16822;SDS011;8528;49.976;11.858;2022-09-03T00:05:20;2.57;;;2.37;;
16822;SDS011;8528;49.976;11.858;2022-09-03T00:08:05;2.70;;;2.50;;
16822;SDS011;8528;49.976;11.858;2022-09-03T00:10:55;3.20;;;2.90;;
16822;SDS011;8528;49.976;11.858;2022-09-03T00:13:37;2.93;;;2.53;;
16822;SDS011;8528;49.976;11.858;2022-09-03T00:16:28;2.70;;;2.50;;
16822;SDS011;8528;49.976;11.858;2022-09-03T00:19:09;2.67;;;2.47;;
16822;SDS011;8528;49.976;11.858;2022-09-03T00:24:33;2.50;;;2.30;;
16822;SDS011;8528;49.976;11.858;2022-09-03T00:27:05;2.87;;;2.57;;
16822;SDS011;8528;49.976;11.858;2022-09-03T00:29:48;2.70;;;2.40;;
16822;SDS011;8528;49.976;11.858;2022-09-03T00:32:22;2.60;;;2.40;;
16822;SDS011;8528;49.976;11.858;2022-09-03T00:34:55;2.57;;;2.37;;
16822;SDS011;8528;49.976;11.858;2022-09-03T00:37:36;2.87;;;2.67;;
16822;SDS011;8528;49.976;11.858;2022-09-03T00:40:04;2.63;;;2.43;;
16822;SDS011;8528;49.976;11.858;2022-09-03T00:42:46;4.10;;;2.97;;
16822;SDS011;8528;49.976;11.858;2022-09-03T00:48:20;3.13;;;2.83;;
16822;SDS011;8528;49.976;11.858;2022-09-03T00:51:06;2.93;;;2.63;;
16822;SDS011;8528;49.976;11.858;2022-09-03T00:59:36;2.40;;;2.20;;
16822;SDS011;8528;49.976;11.858;2022-09-03T01:02:25;2.93;;;2.60;;
16822;SDS011;8528;49.976;11.858;2022-09-03T01:08:12;2.87;;;2.40;;
16822;SDS011;8528;49.976;11.858;2022-09-03T01:11:16;2.63;;;2.43;;
16822;SDS011;8528;49.976;11.858;2022-09-03T01:13:47;3.50;;;2.53;;
16822;SDS011;8528;49.976;11.858;2022-09-03T01:19:12;3.00;;;2.70;;
16822;SDS011;8528;49.976;11.858;2022-09-03T01:22:15;2.97;;;2.73;;
16822;SDS011;8528;49.976;11.858;2022-09-03T01:30:42;4.23;;;3.07;;
16822;SDS011;8528;49.976;11.858;2022-09-03T01:33:18;3.10;;;2.80;;
16822;SDS011;8528;49.976;11.858;2022-09-03T01:41:51;3.13;;;2.83;;
16822;SDS011;8528;49.976;11.858;2022-09-03T01:59:10;2.90;;;2.70;;
16822;SDS011;8528;49.976;11.858;2022-09-03T02:05:03;2.97;;;2.77;;
16822;SDS011;8528;49.976;11.858;2022-09-03T02:07:42;3.33;;;3.03;;
16822;SDS011;8528;49.976;11.858;2022-09-03T02:10:19;3.33;;;2.90;;
16822;SDS011;8528;49.976;11.858;2022-09-03T02:13:06;3.80;;;2.90;;
16822;SDS011;8528;49.976;11.858;2022-09-03T02:15:36;4.17;;;3.10;;
16822;SDS011;8528;49.976;11.858;2022-09-03T02:18:16;3.50;;;3.20;;
16822;SDS011;8528;49.976;11.858;2022-09-03T02:20:58;3.20;;;2.90;;
16822;SDS011;8528;49.976;11.858;2022-09-03T02:23:30;3.50;;;3.20;;
16822;SDS011;8528;49.976;11.858;2022-09-03T02:26:03;5.03;;;3.37;;
16822;SDS011;8528;49.976;11.858;2022-09-03T02:28:30;3.60;;;3.27;;
16822;SDS011;8528;49.976;11.858;2022-09-03T02:31:11;3.60;;;3.30;;
16822;SDS011;8528;49.976;11.858;2022-09-03T02:33:38;3.93;;;3.20;;
16822;SDS011;8528;49.976;11.858;2022-09-03T02:36:08;3.40;;;3.10;;
16822;SDS011;8528;49.976;11.858;2022-09-03T02:38:37;3.77;;;3.13;;
16822;SDS011;8528;49.976;11.858;2022-09-03T02:41:09;4.67;;;3.40;;
16822;SDS011;8528;49.976;11.858;2022-09-03T02:43:48;3.07;;;2.87;;
16822;SDS011;8528;49.976;11.858;2022-09-03T02:46:20;3.50;;;3.20;;
16822;SDS011;8528;49.976;11.858;2022-09-03T02:48:53;3.33;;;3.03;;
16822;SDS011;8528;49.976;11.858;2022-09-03T02:51:22;3.17;;;2.87;;
16822;SDS011;8528;49.976;11.858;2022-09-03T02:53:52;5.60;;;4.50;;
16822;SDS011;8528;49.976;11.858;2022-09-03T02:56:18;4.00;;;3.60;;
16822;SDS011;8528;49.976;11.858;2022-09-03T02:58:46;4.03;;;3.13;;
16822;SDS011;8528;49.976;11.858;2022-09-03T03:01:12;3.43;;;3.13;;
16822;SDS011;8528;49.976;11.858;2022-09-03T03:03:55;3.17;;;2.97;;
16822;SDS011;8528;49.976;11.858;2022-09-03T03:06:25;4.43;;;3.10;;
16822;SDS011;8528;49.976;11.858;2022-09-03T03:08:54;3.17;;;2.87;;
16822;SDS011;8528;49.976;11.858;2022-09-03T03:11:26;3.50;;;3.20;;
16822;SDS011;8528;49.976;11.858;2022-09-03T03:13:53;4.23;;;3.07;;
16822;SDS011;8528;49.976;11.858;2022-09-03T03:16:23;3.30;;;2.97;;
16822;SDS011;8528;49.976;11.858;2022-09-03T03:18:50;4.40;;;3.57;;
16822;SDS011;8528;49.976;11.858;2022-09-03T03:21:18;4.07;;;3.20;;
16822;SDS011;8528;49.976;11.858;2022-09-03T03:23:48;4.63;;;3.23;;
16822;SDS011;8528;49.976;11.858;2022-09-03T03:26:16;4.07;;;3.50;;
16822;SDS011;8528;49.976;11.858;2022-09-03T03:28:48;3.83;;;3.43;;
16822;SDS011;8528;49.976;11.858;2022-09-03T03:31:17;4.50;;;4.10;;
16822;SDS011;8528;49.976;11.858;2022-09-03T03:33:50;5.43;;;4.40;;
16822;SDS011;8528;49.976;11.858;2022-09-03T03:36:18;5.00;;;3.90;;
16822;SDS011;8528;49.976;11.858;2022-09-03T03:38:46;4.33;;;4.00;;
16822;SDS011;8528;49.976;11.858;2022-09-03T03:41:17;3.87;;;3.53;;
16822;SDS011;8528;49.976;11.858;2022-09-03T03:43:55;4.53;;;3.43;;
16822;SDS011;8528;49.976;11.858;2022-09-03T03:46:27;5.43;;;4.00;;
16822;SDS011;8528;49.976;11.858;2022-09-03T03:48:56;4.07;;;3.70;;
16822;SDS011;8528;49.976;11.858;2022-09-03T03:51:29;4.27;;;3.70;;
16822;SDS011;8528;49.976;11.858;2022-09-03T03:53:56;4.20;;;3.87;;
16822;SDS011;8528;49.976;11.858;2022-09-03T03:56:28;5.00;;;3.77;;
16822;SDS011;8528;49.976;11.858;2022-09-03T03:58:55;4.07;;;3.63;;
16822;SDS011;8528;49.976;11.858;2022-09-03T04:01:26;3.60;;;3.17;;
16822;SDS011;8528;49.976;11.858;2022-09-03T04:03:54;3.47;;;3.17;;
16822;SDS011;8528;49.976;11.858;2022-09-03T04:06:23;3.50;;;3.20;;
16822;SDS011;8528;49.976;11.858;2022-09-03T04:08:50;4.03;;;3.73;;
16822;SDS011;8528;49.976;11.858;2022-09-03T04:11:26;4.87;;;3.73;;
16822;SDS011;8528;49.976;11.858;2022-09-03T04:13:53;4.80;;;3.97;;
16822;SDS011;8528;49.976;11.858;2022-09-03T04:16:24;6.17;;;4.33;;
16822;SDS011;8528;49.976;11.858;2022-09-03T04:18:53;5.80;;;3.83;;
16822;SDS011;8528;49.976;11.858;2022-09-03T04:21:29;4.30;;;3.90;;
16822;SDS011;8528;49.976;11.858;2022-09-03T04:23:57;4.00;;;3.60;;
16822;SDS011;8528;49.976;11.858;2022-09-03T04:26:32;4.40;;;4.00;;
16822;SDS011;8528;49.976;11.858;2022-09-03T04:29:01;3.80;;;3.50;;
16822;SDS011;8528;49.976;11.858;2022-09-03T04:31:30;5.20;;;3.93;;
16822;SDS011;8528;49.976;11.858;2022-09-03T04:33:57;3.63;;;3.33;;
16822;SDS011;8528;49.976;11.858;2022-09-03T04:36:26;4.30;;;3.87;;
16822;SDS011;8528;49.976;11.858;2022-09-03T04:38:54;6.90;;;4.03;;
16822;SDS011;8528;49.976;11.858;2022-09-03T04:41:24;3.77;;;3.47;;
16822;SDS011;8528;49.976;11.858;2022-09-03T04:43:54;3.77;;;3.40;;
16822;SDS011;8528;49.976;11.858;2022-09-03T04:46:23;4.00;;;3.57;;
16822;SDS011;8528;49.976;11.858;2022-09-03T04:48:53;4.53;;;4.10;;
16822;SDS011;8528;49.976;11.858;2022-09-03T04:51:29;4.13;;;3.73;;
16822;SDS011;8528;49.976;11.858;2022-09-03T04:53:57;5.27;;;4.77;;
16822;SDS011;8528;49.976;11.858;2022-09-03T04:56:33;3.87;;;3.57;;
16822;SDS011;8528;49.976;11.858;2022-09-03T04:59:02;4.40;;;3.40;;
16822;SDS011;8528;49.976;11.858;2022-09-03T05:01:38;6.57;;;3.83;;
16822;SDS011;8528;49.976;11.858;2022-09-03T05:04:06;4.77;;;4.00;;
16822;SDS011;8528;49.976;11.858;2022-09-03T05:06:33;4.77;;;4.13;;
16822;SDS011;8528;49.976;11.858;2022-09-03T05:09:02;5.90;;;4.67;;
16822;SDS011;8528;49.976;11.858;2022-09-03T05:11:32;4.43;;;4.00;;
16822;SDS011;8528;49.976;11.858;2022-09-03T05:13:59;5.53;;;4.27;;
16822;SDS011;8528;49.976;11.858;2022-09-03T05:16:26;4.47;;;4.07;;
16822;SDS011;8528;49.976;11.858;2022-09-03T05:18:55;5.50;;;3.70;;
16822;SDS011;8528;49.976;11.858;2022-09-03T05:21:27;5.10;;;3.67;;
16822;SDS011;8528;49.976;11.858;2022-09-03T05:23:55;5.37;;;3.43;;
16822;SDS011;8528;49.976;11.858;2022-09-03T05:26:37;7.17;;;4.50;;
16822;SDS011;8528;49.976;11.858;2022-09-03T05:29:05;4.70;;;4.20;;
16822;SDS011;8528;49.976;11.858;2022-09-03T05:31:33;7.13;;;4.20;;
16822;SDS011;8528;49.976;11.858;2022-09-03T05:34:03;7.40;;;3.70;;
16822;SDS011;8528;49.976;11.858;2022-09-03T05:36:34;4.37;;;3.40;;
16822;SDS011;8528;49.976;11.858;2022-09-03T05:39:08;3.67;;;3.27;;
16822;SDS011;8528;49.976;11.858;2022-09-03T05:41:38;3.50;;;3.00;;
16822;SDS011;8528;49.976;11.858;2022-09-03T05:44:08;3.03;;;2.73;;
16822;SDS011;8528;49.976;11.858;2022-09-03T05:46:35;3.47;;;3.00;;
16822;SDS011;8528;49.976;11.858;2022-09-03T05:49:04;4.80;;;3.20;;
16822;SDS011;8528;49.976;11.858;2022-09-03T05:51:35;3.60;;;2.80;;
16822;SDS011;8528;49.976;11.858;2022-09-03T05:54:08;2.97;;;2.67;;
16822;SDS011;8528;49.976;11.858;2022-09-03T05:56:36;3.20;;;3.00;;
16822;SDS011;8528;49.976;11.858;2022-09-03T05:59:09;3.50;;;3.20;;
16822;SDS011;8528;49.976;11.858;2022-09-03T06:01:45;3.37;;;2.90;;
16822;SDS011;8528;49.976;11.858;2022-09-03T06:04:20;3.70;;;2.87;;
16822;SDS011;8528;49.976;11.858;2022-09-03T06:06:47;4.57;;;2.87;;
16822;SDS011;8528;49.976;11.858;2022-09-03T06:09:18;3.63;;;3.23;;
16822;SDS011;8528;49.976;11.858;2022-09-03T06:11:49;5.10;;;2.90;;
16822;SDS011;8528;49.976;11.858;2022-09-03T06:14:19;3.90;;;3.00;;
16822;SDS011;8528;49.976;11.858;2022-09-03T06:16:47;6.83;;;3.03;;
16822;SDS011;8528;49.976;11.858;2022-09-03T06:19:17;4.00;;;2.77;;
16822;SDS011;8528;49.976;11.858;2022-09-03T06:21:48;7.07;;;4.97;;
16822;SDS011;8528;49.976;11.858;2022-09-03T06:24:16;2.87;;;2.67;;
16822;SDS011;8528;49.976;11.858;2022-09-03T06:26:48;4.80;;;2.60;;
16822;SDS011;8528;49.976;11.858;2022-09-03T06:29:15;4.87;;;2.70;;
16822;SDS011;8528;49.976;11.858;2022-09-03T06:31:44;2.80;;;2.43;;
16822;SDS011;8528;49.976;11.858;2022-09-03T06:34:14;4.07;;;2.57;;
16822;SDS011;8528;49.976;11.858;2022-09-03T06:36:47;3.77;;;2.50;;
16822;SDS011;8528;49.976;11.858;2022-09-03T06:39:17;3.17;;;2.30;;
16822;SDS011;8528;49.976;11.858;2022-09-03T06:41:47;2.73;;;2.47;;
16822;SDS011;8528;49.976;11.858;2022-09-03T06:44:17;2.33;;;2.13;;
16822;SDS011;8528;49.976;11.858;2022-09-03T06:46:53;2.30;;;2.03;;
16822;SDS011;8528;49.976;11.858;2022-09-03T06:49:20;2.27;;;2.07;;
16822;SDS011;8528;49.976;11.858;2022-09-03T06:51:53;3.90;;;2.43;;
16822;SDS011;8528;49.976;11.858;2022-09-03T06:54:20;4.33;;;3.40;;
16822;SDS011;8528;49.976;11.858;2022-09-03T06:56:47;3.77;;;2.47;;
16822;SDS011;8528;49.976;11.858;2022-09-03T06:59:17;4.57;;;2.30;;
16822;SDS011;8528;49.976;11.858;2022-09-03T07:01:44;3.93;;;2.00;;
16822;SDS011;8528;49.976;11.858;2022-09-03T07:04:12;2.33;;;2.13;;
16822;SDS011;8528;49.976;11.858;2022-09-03T07:06:42;2.37;;;2.17;;
16822;SDS011;8528;49.976;11.858;2022-09-03T07:09:10;5.50;;;2.20;;
16822;SDS011;8528;49.976;11.858;2022-09-03T07:11:38;2.63;;;2.03;;
16822;SDS011;8528;49.976;11.858;2022-09-03T07:14:14;2.57;;;1.93;;
16822;SDS011;8528;49.976;11.858;2022-09-03T07:16:44;2.07;;;1.87;;
16822;SDS011;8528;49.976;11.858;2022-09-03T07:19:13;3.80;;;2.03;;
16822;SDS011;8528;49.976;11.858;2022-09-03T07:21:41;2.10;;;1.90;;
16822;SDS011;8528;49.976;11.858;2022-09-03T07:24:15;2.77;;;2.13;;
16822;SDS011;8528;49.976;11.858;2022-09-03T07:26:45;2.03;;;1.83;;
16822;SDS011;8528;49.976;11.858;2022-09-03T07:29:14;4.13;;;2.23;;
16822;SDS011;8528;49.976;11.858;2022-09-03T07:31:47;3.57;;;1.97;;
16822;SDS011;8528;49.976;11.858;2022-09-03T07:34:17;4.73;;;2.27;;
16822;SDS011;8528;49.976;11.858;2022-09-03T07:36:47;1.93;;;1.60;;
16822;SDS011;8528;49.976;11.858;2022-09-03T07:39:17;3.43;;;1.80;;
16822;SDS011;8528;49.976;11.858;2022-09-03T07:41:44;2.80;;;2.10;;
16822;SDS011;8528;49.976;11.858;2022-09-03T07:44:12;5.30;;;2.07;;
16822;SDS011;8528;49.976;11.858;2022-09-03T07:46:42;4.03;;;2.67;;
16822;SDS011;8528;49.976;11.858;2022-09-03T07:49:11;2.77;;;1.63;;
16822;SDS011;8528;49.976;11.858;2022-09-03T07:51:44;2.80;;;2.00;;
16822;SDS011;8528;49.976;11.858;2022-09-03T07:54:15;2.40;;;1.80;;
16822;SDS011;8528;49.976;11.858;2022-09-03T07:56:45;4.33;;;1.90;;
16822;SDS011;8528;49.976;11.858;2022-09-03T07:59:13;1.97;;;1.77;;
16822;SDS011;8528;49.976;11.858;2022-09-03T08:01:39;2.83;;;2.03;;
16822;SDS011;8528;49.976;11.858;2022-09-03T08:04:07;3.77;;;1.80;;
16822;SDS011;8528;49.976;11.858;2022-09-03T08:06:35;3.70;;;1.90;;
16822;SDS011;8528;49.976;11.858;2022-09-03T08:09:04;3.63;;;1.70;;
16822;SDS011;8528;49.976;11.858;2022-09-03T08:11:41;2.17;;;1.80;;
16822;SDS011;8528;49.976;11.858;2022-09-03T08:14:14;3.13;;;2.07;;
16822;SDS011;8528;49.976;11.858;2022-09-03T08:16:46;2.00;;;1.80;;
16822;SDS011;8528;49.976;11.858;2022-09-03T08:19:13;2.63;;;1.83;;
16822;SDS011;8528;49.976;11.858;2022-09-03T08:21:41;2.30;;;1.70;;
16822;SDS011;8528;49.976;11.858;2022-09-03T08:24:11;2.30;;;1.73;;
16822;SDS011;8528;49.976;11.858;2022-09-03T08:26:41;1.83;;;1.60;;
16822;SDS011;8528;49.976;11.858;2022-09-03T08:29:15;2.70;;;1.70;;
16822;SDS011;8528;49.976;11.858;2022-09-03T08:31:51;1.97;;;1.77;;
16822;SDS011;8528;49.976;11.858;2022-09-03T08:34:20;1.47;;;1.37;;
16822;SDS011;8528;49.976;11.858;2022-09-03T08:36:47;3.57;;;1.70;;
16822;SDS011;8528;49.976;11.858;2022-09-03T08:39:20;1.60;;;1.50;;
16822;SDS011;8528;49.976;11.858;2022-09-03T08:44:35;3.73;;;1.90;;
16822;SDS011;8528;49.976;11.858;2022-09-03T08:47:11;4.37;;;2.00;;
16822;SDS011;8528;49.976;11.858;2022-09-03T08:52:51;1.70;;;1.50;;
16822;SDS011;8528;49.976;11.858;2022-09-03T08:55:28;2.83;;;1.60;;
16822;SDS011;8528;49.976;11.858;2022-09-03T08:58:01;6.37;;;2.00;;
16822;SDS011;8528;49.976;11.858;2022-09-03T09:03:35;2.23;;;1.80;;
16822;SDS011;8528;49.976;11.858;2022-09-03T09:15:24;3.40;;;2.20;;
16822;SDS011;8528;49.976;11.858;2022-09-03T09:20:48;2.67;;;1.60;;
16822;SDS011;8528;49.976;11.858;2022-09-03T09:26:14;3.87;;;1.77;;
16822;SDS011;8528;49.976;11.858;2022-09-03T09:28:54;2.20;;;1.87;;
16822;SDS011;8528;49.976;11.858;2022-09-03T09:31:28;2.03;;;1.70;;
16822;SDS011;8528;49.976;11.858;2022-09-03T09:34:05;5.60;;;1.53;;
16822;SDS011;8528;49.976;11.858;2022-09-03T09:36:40;2.77;;;1.50;;
16822;SDS011;8528;49.976;11.858;2022-09-03T09:39:24;2.40;;;1.93;;
16822;SDS011;8528;49.976;11.858;2022-09-03T09:44:48;2.93;;;1.70;;
16822;SDS011;8528;49.976;11.858;2022-09-03T09:47:22;2.00;;;1.73;;
16822;SDS011;8528;49.976;11.858;2022-09-03T09:49:58;1.87;;;1.50;;
16822;SDS011;8528;49.976;11.858;2022-09-03T09:52:30;1.77;;;1.67;;
16822;SDS011;8528;49.976;11.858;2022-09-03T09:55:13;5.00;;;1.80;;
16822;SDS011;8528;49.976;11.858;2022-09-03T09:57:43;2.53;;;1.63;;
16822;SDS011;8528;49.976;11.858;2022-09-03T10:00:15;5.37;;;1.60;;
16822;SDS011;8528;49.976;11.858;2022-09-03T10:02:50;1.90;;;1.70;;
16822;SDS011;8528;49.976;11.858;2022-09-03T10:05:28;2.80;;;1.77;;
16822;SDS011;8528;49.976;11.858;2022-09-03T10:08:00;1.83;;;1.40;;
16822;SDS011;8528;49.976;11.858;2022-09-03T10:10:33;2.13;;;1.87;;
16822;SDS011;8528;49.976;11.858;2022-09-03T10:13:11;1.57;;;1.47;;
16822;SDS011;8528;49.976;11.858;2022-09-03T10:16:00;4.17;;;1.80;;
16822;SDS011;8528;49.976;11.858;2022-09-03T10:21:35;3.10;;;1.70;;
16822;SDS011;8528;49.976;11.858;2022-09-03T10:24:25;2.50;;;1.80;;
16822;SDS011;8528;49.976;11.858;2022-09-03T10:27:08;2.53;;;1.77;;
16822;SDS011;8528;49.976;11.858;2022-09-03T10:29:40;1.53;;;1.40;;
16822;SDS011;8528;49.976;11.858;2022-09-03T10:38:01;2.70;;;1.63;;
16822;SDS011;8528;49.976;11.858;2022-09-03T10:43:51;1.47;;;1.37;;
16822;SDS011;8528;49.976;11.858;2022-09-03T10:55:24;2.57;;;1.40;;
16822;SDS011;8528;49.976;11.858;2022-09-03T10:58:09;2.60;;;1.60;;
16822;SDS011;8528;49.976;11.858;2022-09-03T11:01:06;2.30;;;1.57;;
16822;SDS011;8528;49.976;11.858;2022-09-03T11:04:07;2.27;;;1.47;;
16822;SDS011;8528;49.976;11.858;2022-09-03T11:06:42;1.80;;;1.70;;
16822;SDS011;8528;49.976;11.858;2022-09-03T11:12:02;2.07;;;1.60;;
16822;SDS011;8528;49.976;11.858;2022-09-03T11:15:02;2.00;;;1.70;;
16822;SDS011;8528;49.976;11.858;2022-09-03T11:17:33;3.97;;;1.60;;
16822;SDS011;8528;49.976;11.858;2022-09-03T11:20:19;2.53;;;1.57;;
16822;SDS011;8528;49.976;11.858;2022-09-03T11:22:48;3.20;;;1.53;;
16822;SDS011;8528;49.976;11.858;2022-09-03T11:25:20;1.83;;;1.50;;
16822;SDS011;8528;49.976;11.858;2022-09-03T11:30:46;2.47;;;1.60;;
16822;SDS011;8528;49.976;11.858;2022-09-03T11:33:22;1.87;;;1.50;;
16822;SDS011;8528;49.976;11.858;2022-09-03T11:35:55;1.73;;;1.50;;
16822;SDS011;8528;49.976;11.858;2022-09-03T11:38:27;3.13;;;1.50;;
16822;SDS011;8528;49.976;11.858;2022-09-03T11:43:41;2.43;;;1.50;;
16822;SDS011;8528;49.976;11.858;2022-09-03T11:46:13;2.90;;;1.77;;
16822;SDS011;8528;49.976;11.858;2022-09-03T11:49:08;3.13;;;1.30;;
16822;SDS011;8528;49.976;11.858;2022-09-03T11:51:39;4.30;;;1.70;;
16822;SDS011;8528;49.976;11.858;2022-09-03T11:56:39;2.00;;;1.57;;
16822;SDS011;8528;49.976;11.858;2022-09-03T12:01:52;1.63;;;1.40;;
16822;SDS011;8528;49.976;11.858;2022-09-03T12:13:48;2.07;;;1.30;;
16822;SDS011;8528;49.976;11.858;2022-09-03T12:19:52;1.83;;;1.37;;
16822;SDS011;8528;49.976;11.858;2022-09-03T12:22:35;2.73;;;1.67;;
16822;SDS011;8528;49.976;11.858;2022-09-03T12:25:13;4.20;;;1.57;;
16822;SDS011;8528;49.976;11.858;2022-09-03T12:27:41;4.20;;;1.67;;
16822;SDS011;8528;49.976;11.858;2022-09-03T12:30:17;1.90;;;1.60;;
16822;SDS011;8528;49.976;11.858;2022-09-03T12:33:01;1.77;;;1.40;;
16822;SDS011;8528;49.976;11.858;2022-09-03T12:35:32;1.93;;;1.57;;
16822;SDS011;8528;49.976;11.858;2022-09-03T12:38:25;1.70;;;1.60;;
16822;SDS011;8528;49.976;11.858;2022-09-03T12:40:54;2.27;;;1.80;;
16822;SDS011;8528;49.976;11.858;2022-09-03T12:43:49;2.00;;;1.70;;
16822;SDS011;8528;49.976;11.858;2022-09-03T12:46:21;1.70;;;1.60;;
16822;SDS011;8528;49.976;11.858;2022-09-03T12:49:00;2.03;;;1.70;;
16822;SDS011;8528;49.976;11.858;2022-09-03T12:52:04;2.10;;;1.83;;
16822;SDS011;8528;49.976;11.858;2022-09-03T12:54:52;3.00;;;1.80;;
16822;SDS011;8528;49.976;11.858;2022-09-03T12:57:33;1.73;;;1.50;;
16822;SDS011;8528;49.976;11.858;2022-09-03T13:00:14;1.50;;;1.40;;
16822;SDS011;8528;49.976;11.858;2022-09-03T13:03:03;2.50;;;1.50;;
16822;SDS011;8528;49.976;11.858;2022-09-03T13:05:36;1.90;;;1.57;;
16822;SDS011;8528;49.976;11.858;2022-09-03T13:08:20;1.73;;;1.60;;
16822;SDS011;8528;49.976;11.858;2022-09-03T13:10:58;2.90;;;1.50;;
16822;SDS011;8528;49.976;11.858;2022-09-03T13:13:31;2.03;;;1.60;;
16822;SDS011;8528;49.976;11.858;2022-09-03T13:21:53;1.70;;;1.60;;
16822;SDS011;8528;49.976;11.858;2022-09-03T13:27:30;2.37;;;1.60;;
16822;SDS011;8528;49.976;11.858;2022-09-03T13:30:11;1.83;;;1.60;;
16822;SDS011;8528;49.976;11.858;2022-09-03T13:41:48;1.60;;;1.50;;
16822;SDS011;8528;49.976;11.858;2022-09-03T13:50:02;2.10;;;1.97;;
16822;SDS011;8528;49.976;11.858;2022-09-03T14:01:56;1.50;;;1.33;;
16822;SDS011;8528;49.976;11.858;2022-09-03T14:07:41;2.57;;;1.80;;
16822;SDS011;8528;49.976;11.858;2022-09-03T14:12:52;2.27;;;1.90;;
16822;SDS011;8528;49.976;11.858;2022-09-03T14:15:26;3.43;;;2.53;;
16822;SDS011;8528;49.976;11.858;2022-09-03T14:21:08;2.43;;;1.90;;
16822;SDS011;8528;49.976;11.858;2022-09-03T14:23:50;1.80;;;1.70;;
16822;SDS011;8528;49.976;11.858;2022-09-03T14:26:28;1.70;;;1.60;;
16822;SDS011;8528;49.976;11.858;2022-09-03T14:29:07;1.90;;;1.67;;
16822;SDS011;8528;49.976;11.858;2022-09-03T14:32:04;2.70;;;1.80;;
16822;SDS011;8528;49.976;11.858;2022-09-03T14:38:43;1.90;;;1.70;;
16822;SDS011;8528;49.976;11.858;2022-09-03T14:40:56;2.63;;;1.97;;
16822;SDS011;8528;49.976;11.858;2022-09-03T14:47:05;3.73;;;1.60;;
16822;SDS011;8528;49.976;11.858;2022-09-03T14:50:02;1.77;;;1.67;;
16822;SDS011;8528;49.976;11.858;2022-09-03T14:58:38;1.80;;;1.70;;
16822;SDS011;8528;49.976;11.858;2022-09-03T15:01:12;6.20;;;2.10;;
16822;SDS011;8528;49.976;11.858;2022-09-03T15:07:15;3.60;;;1.93;;
16822;SDS011;8528;49.976;11.858;2022-09-03T15:12:19;5.47;;;2.50;;
16822;SDS011;8528;49.976;11.858;2022-09-03T15:21:23;2.40;;;1.77;;
16822;SDS011;8528;49.976;11.858;2022-09-03T15:24:20;3.90;;;2.00;;
16822;SDS011;8528;49.976;11.858;2022-09-03T15:30:17;2.10;;;1.83;;
16822;SDS011;8528;49.976;11.858;2022-09-03T15:35:28;3.80;;;1.97;;
16822;SDS011;8528;49.976;11.858;2022-09-03T15:44:02;2.07;;;1.83;;
16822;SDS011;8528;49.976;11.858;2022-09-03T15:46:48;2.10;;;1.87;;
16822;SDS011;8528;49.976;11.858;2022-09-03T15:52:36;2.10;;;1.63;;
16822;SDS011;8528;49.976;11.858;2022-09-03T15:55:24;3.97;;;1.80;;
16822;SDS011;8528;49.976;11.858;2022-09-03T15:58:01;3.40;;;2.03;;
16822;SDS011;8528;49.976;11.858;2022-09-03T16:01:09;3.10;;;1.80;;
16822;SDS011;8528;49.976;11.858;2022-09-03T16:06:44;2.20;;;2.00;;
16822;SDS011;8528;49.976;11.858;2022-09-03T16:16:06;2.13;;;1.93;;
16822;SDS011;8528;49.976;11.858;2022-09-03T16:24:30;2.83;;;1.80;;
16822;SDS011;8528;49.976;11.858;2022-09-03T16:32:38;4.80;;;2.20;;
16822;SDS011;8528;49.976;11.858;2022-09-03T16:38:31;2.10;;;1.90;;
16822;SDS011;8528;49.976;11.858;2022-09-03T16:41:28;2.73;;;2.30;;
16822;SDS011;8528;49.976;11.858;2022-09-03T16:44:40;1.80;;;1.70;;
16822;SDS011;8528;49.976;11.858;2022-09-03T16:55:27;3.20;;;2.23;;
16822;SDS011;8528;49.976;11.858;2022-09-03T17:01:07;6.43;;;3.20;;
16822;SDS011;8528;49.976;11.858;2022-09-03T17:08:49;3.33;;;2.60;;
16822;SDS011;8528;49.976;11.858;2022-09-03T17:11:56;4.57;;;2.37;;
16822;SDS011;8528;49.976;11.858;2022-09-03T17:26:09;3.40;;;3.10;;
16822;SDS011;8528;49.976;11.858;2022-09-03T17:37:20;2.80;;;2.60;;
16822;SDS011;8528;49.976;11.858;2022-09-03T17:40:30;3.00;;;2.70;;
16822;SDS011;8528;49.976;11.858;2022-09-03T17:49:22;4.83;;;3.20;;
16822;SDS011;8528;49.976;11.858;2022-09-03T17:52:34;4.50;;;2.83;;
16822;SDS011;8528;49.976;11.858;2022-09-03T17:55:37;4.80;;;3.10;;
16822;SDS011;8528;49.976;11.858;2022-09-03T17:58:16;3.00;;;2.80;;
16822;SDS011;8528;49.976;11.858;2022-09-03T18:03:56;3.10;;;2.80;;
16822;SDS011;8528;49.976;11.858;2022-09-03T18:09:06;3.07;;;2.83;;
16822;SDS011;8528;49.976;11.858;2022-09-03T18:14:42;2.90;;;2.70;;
16822;SDS011;8528;49.976;11.858;2022-09-03T18:20:07;3.37;;;3.07;;
16822;SDS011;8528;49.976;11.858;2022-09-03T18:26:18;5.23;;;2.70;;
16822;SDS011;8528;49.976;11.858;2022-09-03T18:29:15;4.03;;;3.10;;
16822;SDS011;8528;49.976;11.858;2022-09-03T18:32:31;3.20;;;2.90;;
16822;SDS011;8528;49.976;11.858;2022-09-03T18:35:16;5.00;;;2.83;;
16822;SDS011;8528;49.976;11.858;2022-09-03T18:38:08;3.13;;;2.83;;
16822;SDS011;8528;49.976;11.858;2022-09-03T18:44:22;4.10;;;3.03;;
16822;SDS011;8528;49.976;11.858;2022-09-03T19:00:31;3.10;;;2.80;;
16822;SDS011;8528;49.976;11.858;2022-09-03T19:06:24;4.07;;;3.00;;
16822;SDS011;8528;49.976;11.858;2022-09-03T19:09:57;4.67;;;2.93;;
16822;SDS011;8528;49.976;11.858;2022-09-03T19:13:21;5.10;;;3.03;;
16822;SDS011;8528;49.976;11.858;2022-09-03T19:16:30;3.13;;;2.87;;
16822;SDS011;8528;49.976;11.858;2022-09-03T19:20:25;3.83;;;3.00;;
16822;SDS011;8528;49.976;11.858;2022-09-03T19:22:46;3.00;;;2.70;;
16822;SDS011;8528;49.976;11.858;2022-09-03T19:25:31;3.63;;;3.17;;
16822;SDS011;8528;49.976;11.858;2022-09-03T19:28:18;3.40;;;3.10;;
16822;SDS011;8528;49.976;11.858;2022-09-03T19:34:21;3.03;;;2.77;;
16822;SDS011;8528;49.976;11.858;2022-09-03T19:37:22;5.23;;;3.10;;
16822;SDS011;8528;49.976;11.858;2022-09-03T19:46:48;3.40;;;3.10;;
16822;SDS011;8528;49.976;11.858;2022-09-03T19:49:39;3.10;;;2.87;;
16822;SDS011;8528;49.976;11.858;2022-09-03T19:55:32;3.47;;;3.17;;
16822;SDS011;8528;49.976;11.858;2022-09-03T19:58:33;3.87;;;3.47;;
16822;SDS011;8528;49.976;11.858;2022-09-03T20:01:22;4.57;;;3.50;;
16822;SDS011;8528;49.976;11.858;2022-09-03T20:04:14;3.50;;;3.20;;
16822;SDS011;8528;49.976;11.858;2022-09-03T20:07:00;3.80;;;3.50;;
16822;SDS011;8528;49.976;11.858;2022-09-03T20:09:51;4.53;;;3.30;;
16822;SDS011;8528;49.976;11.858;2022-09-03T20:12:42;3.80;;;3.50;;
16822;SDS011;8528;49.976;11.858;2022-09-03T20:15:15;3.70;;;3.40;;
16822;SDS011;8528;49.976;11.858;2022-09-03T20:20:53;4.13;;;3.60;;
16822;SDS011;8528;49.976;11.858;2022-09-03T20:38:20;7.10;;;6.50;;
16822;SDS011;8528;49.976;11.858;2022-09-03T20:41:26;4.30;;;3.90;;
16822;SDS011;8528;49.976;11.858;2022-09-03T20:58:59;5.37;;;4.10;;
16822;SDS011;8528;49.976;11.858;2022-09-03T21:01:45;4.20;;;3.80;;
16822;SDS011;8528;49.976;11.858;2022-09-03T21:07:15;4.90;;;4.07;;
16822;SDS011;8528;49.976;11.858;2022-09-03T21:23:39;4.97;;;4.40;;
16822;SDS011;8528;49.976;11.858;2022-09-03T21:26:35;4.77;;;4.37;;
16822;SDS011;8528;49.976;11.858;2022-09-03T21:29:09;4.73;;;4.33;;
16822;SDS011;8528;49.976;11.858;2022-09-03T21:32:01;5.63;;;5.07;;
16822;SDS011;8528;49.976;11.858;2022-09-03T21:38:22;5.10;;;4.70;;
16822;SDS011;8528;49.976;11.858;2022-09-03T21:43:31;5.53;;;4.30;;
16822;SDS011;8528;49.976;11.858;2022-09-03T21:46:05;5.10;;;4.40;;
16822;SDS011;8528;49.976;11.858;2022-09-03T21:49:09;5.37;;;4.93;;
16822;SDS011;8528;49.976;11.858;2022-09-03T21:51:37;5.07;;;4.67;;
16822;SDS011;8528;49.976;11.858;2022-09-03T22:02:16;5.87;;;5.27;;
16822;SDS011;8528;49.976;11.858;2022-09-03T22:04:50;6.90;;;5.00;;
16822;SDS011;8528;49.976;11.858;2022-09-03T22:18:56;5.50;;;5.00;;